Airfield :
LOGIN :

Register | Disclaimer

   EN    FR    IT 

 










Legend :    VFR   Marginal VFR   IFR   Intensive IFR   Very Intensive IFR
Visi :
Ceiling :
>= 8 km
>= 3000ft
5 to 8 km
1000 to 3000 ft
1500m to 5 km
500 to 1000 ft
800 to 1500m
200 to 500 ft
< 800m
< 200 ft
Symbols :   Thunderstorms  Fog  Heavy snow  Heavy precipitations  Wind > 20 kt
SIGMETs :     Misc.  Thunderstorms  Icing  Turbulence  Mountain Waves  Volcanic Ashes






- Airport Elevation : 97 ft
- IATA code : EBJ


EKEB - Esbjerg

CURRENT METAR :
  • 292350Z AUTO 19006KT 9999 SCT018/// SCT041/// BKN058/// BKN086/// 13/12 Q1004

EXPIRED METARs :
  • 292320Z AUTO 18007KT 9999 -DZ SCT012/// BKN029/// BKN063/// BKN083/// 14/12 Q1004
  • 292250Z AUTO 17007KT 9999 FEW012/// BKN061/// 14/12 Q1004
  • 292220Z AUTO 18009KT 9999 -RA SCT010/// BKN032/// BKN044/// 14/13 Q1004
  • 292150Z AUTO 18006KT 9999 -RA BKN009/// 14/13 Q1004 RESHRA
  • 292120Z AUTO 17007KT 8000 -RA FEW010/// BKN015/// 14/13 Q1004 RESHRA
  • 292050Z AUTO 17010KT 9000 -RA BKN011/// 14/13 Q1004
  • 292020Z AUTO 17007KT 130V190 9999 -RA BKN011/// BKN058/// 13/12 Q1004
  • 291950Z AUTO 16012KT 7000 -RA BKN017/// BKN046/// 14/12 Q1004
  • 291920Z AUTO 16009KT 9999 FEW018/// BKN041/// BKN070/// 14/11 Q1004

Expired Forecast.



MET'MAP, your aeronautical weather chart ! - Copyright ORBIFLY December 2007 - Disclaimer

ORBIFLY MET'MAP TEAM :

Programming & Development : Alexandra Zaïnal
Original concept : Baudouin d'Aumeries
Technical & hardware support : Manuel Goepfert
Assistance : Marc-Olivier Méhu




SOURCES & CREDITS :

   NOAA